Time;durP1;ratioP1;P1;durP2;ratioP2;P2;SDS_P1;SDS_P2;PMS_P1;PMS_P2;Temp;Humidity;BMP_temperature;BMP_pressure;BME280_temperature;BME280_humidity;BME280_pressure;Samples;Min_cycle;Max_cycle;Signal;HPM_P1;HPM_P2
2023/07/21 00:01:40;;;;;;;3.80;1.42;;;15.80;99.90;;;;;;6274318;22;20015;-81
2023/07/21 00:04:05;;;;;;;2.72;1.15;;;15.80;99.90;;;;;;6302033;22;20026;-82
2023/07/21 00:06:31;;;;;;;3.90;1.60;;;15.80;99.90;;;;;;6273975;22;20021;-82
2023/07/21 00:08:57;;;;;;;4.63;1.42;;;15.80;99.90;;;;;;6248908;22;20445;-81
2023/07/21 00:11:23;;;;;;;4.15;1.67;;;15.70;99.90;;;;;;6274575;22;20033;-82
2023/07/21 00:13:49;;;;;;;3.83;1.52;;;15.70;99.90;;;;;;6302074;22;20011;-82
2023/07/21 00:16:15;;;;;;;3.13;1.48;;;15.60;99.90;;;;;;6301703;22;20030;-82
2023/07/21 00:18:41;;;;;;;3.35;1.58;;;15.60;99.90;;;;;;6301268;22;20015;-82
2023/07/21 00:21:07;;;;;;;4.10;1.70;;;15.60;99.90;;;;;;6300840;22;20008;-82
2023/07/21 00:23:33;;;;;;;2.92;1.30;;;15.50;99.90;;;;;;6301385;22;20460;-82
2023/07/21 00:26:00;;;;;;;4.72;1.98;;;15.50;99.90;;;;;;6274081;22;20011;-82
2023/07/21 00:28:27;;;;;;;3.60;1.80;;;15.50;99.90;;;;;;6273997;22;20019;-81
2023/07/21 00:30:53;;;;;;;5.30;2.17;;;15.50;99.90;;;;;;6272514;22;20477;-82
2023/07/21 00:33:18;;;;;;;4.90;2.15;;;15.50;99.90;;;;;;6273099;22;20086;-82
2023/07/21 00:35:44;;;;;;;3.75;1.67;;;15.40;99.90;;;;;;6248253;22;20007;-82
2023/07/21 00:38:10;;;;;;;5.35;1.73;;;15.30;99.90;;;;;;6302203;22;20007;-82
2023/07/21 00:40:37;;;;;;;4.65;1.85;;;15.30;99.90;;;;;;6277505;22;20437;-82
2023/07/21 00:43:03;;;;;;;4.93;1.80;;;15.20;99.90;;;;;;6251394;22;20011;-82
2023/07/21 00:45:34;;;;;;;3.78;1.80;;;15.20;99.90;;;;;;6252180;22;20060;-82
2023/07/21 00:48:03;;;;;;;4.10;1.83;;;15.20;99.90;;;;;;6277839;22;20049;-82
2023/07/21 00:50:29;;;;;;;3.38;1.70;;;15.10;99.90;;;;;;6277348;22;20019;-82
2023/07/21 00:52:56;;;;;;;4.13;1.60;;;15.00;99.90;;;;;;6277823;22;20011;-81
2023/07/21 00:55:22;;;;;;;3.72;1.80;;;15.00;99.90;;;;;;6278197;22;20468;-82
2023/07/21 00:57:48;;;;;;;5.38;1.60;;;15.00;99.90;;;;;;6252412;22;20045;-82
2023/07/21 01:00:13;;;;;;;6.35;1.75;;;15.00;99.90;;;;;;6251834;22;20011;-82
2023/07/21 01:02:39;;;;;;;4.95;2.10;;;15.00;99.90;;;;;;6276665;22;20442;-82
2023/07/21 01:05:07;;;;;;;5.07;2.22;;;15.00;99.90;;;;;;6277063;22;20037;-82
2023/07/21 01:07:34;;;;;;;4.32;1.88;;;14.90;99.90;;;;;;6277734;22;20044;-82
2023/07/21 01:10:00;;;;;;;4.85;2.13;;;14.90;99.90;;;;;;6277215;22;20015;-82
2023/07/21 01:12:26;;;;;;;7.75;1.75;;;14.80;99.90;;;;;;6304271;22;20015;-82
2023/07/21 01:14:53;;;;;;;8.73;1.50;;;14.80;99.90;;;;;;6278149;22;20012;-82
2023/07/21 01:17:20;;;;;;;3.45;1.70;;;14.70;99.90;;;;;;6305594;22;20019;-82
2023/07/21 01:19:49;;;;;;;4.93;2.05;;;14.70;99.90;;;;;;6276499;22;20194;-82
2023/07/21 01:22:55;;;;;;;4.68;1.60;;;14.70;99.90;;;;;;6276528;22;20007;-82
2023/07/21 01:25:22;;;;;;;4.85;1.75;;;14.70;99.90;;;;;;6272122;22;20049;-82
2023/07/21 01:27:50;;;;;;;3.90;2.05;;;14.80;99.90;;;;;;6276523;22;20015;-81
2023/07/21 01:30:19;;;;;;;4.25;1.60;;;14.70;99.90;;;;;;6251636;22;20022;-82
2023/07/21 01:32:46;;;;;;;3.38;1.60;;;15.00;99.90;;;;;;6251615;22;20007;-81
2023/07/21 01:35:15;;;;;;;3.60;1.85;;;14.70;99.90;;;;;;6276219;22;20525;-82
2023/07/21 01:37:42;;;;;;;6.18;2.40;;;14.70;99.90;;;;;;6251693;22;20076;-82
2023/07/21 01:40:11;;;;;;;6.50;2.13;;;14.70;99.90;;;;;;6250707;22;20011;-81
2023/07/21 01:42:39;;;;;;;3.70;1.70;;;14.70;99.90;;;;;;6277378;22;20015;-82
2023/07/21 01:45:07;;;;;;;4.75;2.22;;;14.60;99.90;;;;;;6275727;22;20022;-82
2023/07/21 01:47:33;;;;;;;6.03;2.38;;;14.60;99.90;;;;;;6277399;22;20082;-82
2023/07/21 01:50:00;;;;;;;6.00;2.40;;;14.50;99.90;;;;;;6249169;22;20046;-82
2023/07/21 01:52:32;;;;;;;4.90;1.92;;;14.30;99.90;;;;;;6250036;22;20026;-82
2023/07/21 01:55:04;;;;;;;5.30;2.13;;;14.30;99.90;;;;;;6275098;22;20273;-82
2023/07/21 01:57:36;;;;;;;4.70;1.73;;;14.30;99.90;;;;;;6274794;22;20078;-82
2023/07/21 02:00:04;;;;;;;5.78;2.30;;;14.30;99.90;;;;;;6275587;22;20030;-82
2023/07/21 02:02:30;;;;;;;4.53;2.40;;;14.30;99.90;;;;;;6248794;22;20015;-82
2023/07/21 02:04:56;;;;;;;3.67;1.88;;;14.30;99.90;;;;;;6249631;22;20022;-82
2023/07/21 02:07:22;;;;;;;3.92;2.05;;;14.40;99.90;;;;;;6276593;22;20438;-82
2023/07/21 02:09:52;;;;;;;4.75;1.80;;;14.30;99.90;;;;;;6275208;22;20068;-82
2023/07/21 02:12:19;;;;;;;3.75;1.98;;;14.30;99.90;;;;;;6250705;22;20019;-82
2023/07/21 02:14:45;;;;;;;3.80;1.80;;;14.30;99.90;;;;;;6249329;22;20017;-81
2023/07/21 02:17:11;;;;;;;4.97;1.70;;;14.30;99.90;;;;;;6273773;22;20098;-82
2023/07/21 02:19:37;;;;;;;5.50;1.70;;;14.30;99.90;;;;;;6249309;22;20011;-82
2023/07/21 02:22:03;;;;;;;3.38;1.58;;;14.20;99.90;;;;;;6275218;22;20022;-82
2023/07/21 02:24:28;;;;;;;4.57;2.25;;;14.20;99.90;;;;;;6275657;22;20007;-82
2023/07/21 02:26:55;;;;;;;3.83;1.75;;;14.10;99.90;;;;;;6275252;22;20441;-82
2023/07/21 02:29:21;;;;;;;4.22;2.10;;;14.10;99.90;;;;;;6275339;22;20311;-82
2023/07/21 02:31:49;;;;;;;4.75;2.08;;;14.10;99.90;;;;;;6274698;22;20012;-82
2023/07/21 02:34:15;;;;;;;6.47;2.60;;;14.10;99.90;;;;;;6275506;22;20018;-82
2023/07/21 02:36:40;;;;;;;5.72;2.15;;;14.20;99.90;;;;;;6275597;22;20012;-82
2023/07/21 02:39:06;;;;;;;6.60;2.78;;;14.20;99.90;;;;;;6302332;22;20424;-82
2023/07/21 02:41:31;;;;;;;5.03;2.15;;;14.10;99.90;;;;;;6249692;22;20050;-82
2023/07/21 02:43:57;;;;;;;5.60;2.20;;;14.20;99.90;;;;;;6302549;22;20015;-82
2023/07/21 02:46:23;;;;;;;5.50;2.20;;;14.10;99.90;;;;;;6301670;22;20007;-82
2023/07/21 02:48:50;;;;;;;5.78;2.08;;;14.10;99.90;;;;;;6274834;22;20015;-82
2023/07/21 02:51:16;;;;;;;3.95;1.80;;;14.00;99.90;;;;;;6274719;22;20015;-82
2023/07/21 02:53:42;;;;;;;4.00;1.70;;;14.00;99.90;;;;;;6275311;22;20015;-82
2023/07/21 02:56:08;;;;;;;4.60;2.03;;;14.00;99.90;;;;;;6274369;22;20011;-82
2023/07/21 02:58:34;;;;;;;4.00;1.80;;;14.00;99.90;;;;;;6275720;22;20039;-82
2023/07/21 03:01:03;;;;;;;3.45;1.63;;;14.00;99.90;;;;;;6248650;22;20444;-82
2023/07/21 03:03:29;;;;;;;3.85;1.73;;;14.00;99.90;;;;;;6275079;22;20090;-82
2023/07/21 03:05:56;;;;;;;3.97;1.67;;;13.90;99.90;;;;;;6273614;22;20015;-82
2023/07/21 03:08:30;;;;;;;4.72;2.00;;;13.90;99.90;;;;;;6274480;22;20320;-82
2023/07/21 03:10:56;;;;;;;3.57;1.83;;;13.90;99.90;;;;;;6302692;22;20022;-82
2023/07/21 03:13:24;;;;;;;4.80;1.98;;;13.90;99.90;;;;;;6302242;22;20337;-82
2023/07/21 03:15:53;;;;;;;5.55;1.88;;;13.80;99.90;;;;;;6300953;22;20007;-82
2023/07/21 03:18:18;;;;;;;6.13;2.17;;;13.80;99.90;;;;;;6274851;22;20011;-82
2023/07/21 03:20:44;;;;;;;6.60;2.65;;;13.70;99.90;;;;;;6248428;22;20090;-82
2023/07/21 03:23:11;;;;;;;5.78;2.33;;;13.70;99.90;;;;;;6273506;22;20042;-82
2023/07/21 03:25:46;;;;;;;4.68;2.20;;;13.60;99.90;;;;;;6273833;22;20087;-82
2023/07/21 03:28:12;;;;;;;5.53;1.92;;;13.60;99.90;;;;;;6302034;22;20046;-82
2023/07/21 03:30:39;;;;;;;4.35;2.00;;;13.50;99.90;;;;;;6273868;22;20328;-82
2023/07/21 03:33:04;;;;;;;4.75;2.00;;;13.50;99.90;;;;;;6274616;22;20007;-82
2023/07/21 03:35:30;;;;;;;4.25;2.15;;;13.60;99.90;;;;;;6249508;22;20490;-82
2023/07/21 03:37:57;;;;;;;6.20;2.63;;;13.50;99.90;;;;;;6274266;22;20019;-82
2023/07/21 03:40:23;;;;;;;5.85;2.17;;;13.60;99.90;;;;;;6274101;22;20011;-82
2023/07/21 03:42:49;;;;;;;4.32;2.30;;;13.50;99.90;;;;;;6272272;22;20015;-82
2023/07/21 03:45:17;;;;;;;4.80;2.05;;;13.40;99.90;;;;;;6271871;22;20015;-82
2023/07/21 03:47:43;;;;;;;3.25;1.90;;;13.40;99.90;;;;;;6273106;22;20003;-82
2023/07/21 03:50:09;;;;;;;6.60;2.35;;;13.50;99.90;;;;;;6246650;22;20405;-82
2023/07/21 03:52:34;;;;;;;5.88;2.15;;;13.50;99.90;;;;;;6300363;22;20042;-82
2023/07/21 03:55:00;;;;;;;4.68;2.40;;;13.50;99.90;;;;;;6246806;22;20011;-82
2023/07/21 03:57:26;;;;;;;3.90;2.05;;;13.50;99.90;;;;;;6272869;22;20015;-82
2023/07/21 03:59:52;;;;;;;6.80;2.50;;;13.40;99.90;;;;;;6302170;22;20073;-82
2023/07/21 04:02:18;;;;;;;4.30;2.08;;;13.40;99.90;;;;;;6248852;22;20022;-82
2023/07/21 04:04:45;;;;;;;7.00;2.40;;;13.40;99.90;;;;;;6302102;22;20007;-82
2023/07/21 04:07:12;;;;;;;4.30;2.15;;;13.40;99.90;;;;;;6273267;22;20080;-82
2023/07/21 04:09:38;;;;;;;4.68;1.95;;;13.40;99.90;;;;;;6274161;22;20334;-83
2023/07/21 04:12:07;;;;;;;3.33;1.80;;;13.30;99.90;;;;;;6273511;22;20157;-82
2023/07/21 04:14:33;;;;;;;4.45;2.35;;;13.40;99.90;;;;;;6247004;22;20022;-83
2023/07/21 04:16:59;;;;;;;6.32;2.78;;;13.40;99.90;;;;;;6301194;22;20030;-83
2023/07/21 04:19:25;;;;;;;3.85;2.10;;;13.40;99.90;;;;;;6274164;22;20394;-82
2023/07/21 04:21:52;;;;;;;5.13;2.72;;;13.40;99.90;;;;;;6301419;22;20018;-83
2023/07/21 04:24:18;;;;;;;5.13;2.88;;;13.40;99.90;;;;;;6302264;22;20086;-82
2023/07/21 04:26:44;;;;;;;4.68;2.42;;;13.30;99.90;;;;;;6274214;22;20011;-83
2023/07/21 04:29:10;;;;;;;5.25;3.03;;;13.30;99.90;;;;;;6272566;22;20011;-82
2023/07/21 04:31:35;;;;;;;4.93;2.33;;;13.30;99.90;;;;;;6274621;22;20015;-83
2023/07/21 04:34:02;;;;;;;5.13;2.30;;;13.30;99.90;;;;;;6300103;22;20015;-83
2023/07/21 04:36:27;;;;;;;4.88;2.60;;;13.30;99.90;;;;;;6274247;22;20065;-83
2023/07/21 04:38:53;;;;;;;3.90;2.20;;;13.40;99.90;;;;;;6301792;22;20004;-82
2023/07/21 04:41:19;;;;;;;5.95;2.58;;;13.40;99.90;;;;;;6248848;22;20454;-83
2023/07/21 04:43:45;;;;;;;5.35;2.25;;;13.40;99.90;;;;;;6274039;22;20015;-82
2023/07/21 04:46:12;;;;;;;4.35;2.22;;;13.50;99.90;;;;;;6248849;22;20011;-83
2023/07/21 04:48:38;;;;;;;5.88;2.28;;;13.50;99.90;;;;;;6248823;22;20485;-83
2023/07/21 04:51:03;;;;;;;4.45;2.20;;;13.50;99.90;;;;;;6301578;22;20011;-82
2023/07/21 04:53:30;;;;;;;4.43;2.05;;;13.50;99.90;;;;;;6274355;22;20392;-83
2023/07/21 04:55:57;;;;;;;4.97;2.40;;;13.50;99.90;;;;;;6248346;22;20333;-82
2023/07/21 04:58:23;;;;;;;4.72;3.03;;;13.60;99.90;;;;;;6273376;22;20346;-82
2023/07/21 05:00:48;;;;;;;4.10;2.20;;;13.60;99.90;;;;;;6272604;22;20122;-83
2023/07/21 05:03:14;;;;;;;7.40;3.42;;;13.60;99.90;;;;;;6272379;22;20485;-83
2023/07/21 05:05:40;;;;;;;7.32;2.95;;;13.60;99.90;;;;;;6273793;22;20534;-83
2023/07/21 05:08:05;;;;;;;5.68;2.38;;;13.60;99.90;;;;;;6273660;22;20019;-83
2023/07/21 05:10:31;;;;;;;5.75;2.75;;;13.70;99.90;;;;;;6274090;22;20072;-83
2023/07/21 05:12:57;;;;;;;5.75;2.75;;;13.70;99.90;;;;;;6273132;22;20418;-83
2023/07/21 05:15:24;;;;;;;6.72;2.83;;;13.70;99.90;;;;;;6274591;22;20012;-84
2023/07/21 05:17:50;;;;;;;6.50;3.05;;;13.70;99.90;;;;;;6301461;22;20034;-82
2023/07/21 05:20:16;;;;;;;6.30;2.92;;;13.80;99.90;;;;;;6300647;22;20434;-83
2023/07/21 05:22:42;;;;;;;5.57;2.70;;;13.80;99.90;;;;;;6273923;22;20015;-84
2023/07/21 05:25:11;;;;;;;7.40;3.10;;;13.80;99.90;;;;;;6301653;22;20011;-83
2023/07/21 05:27:37;;;;;;;6.68;3.13;;;13.80;99.90;;;;;;6274902;22;20018;-83
2023/07/21 05:30:03;;;;;;;5.80;3.10;;;13.80;99.90;;;;;;6302821;22;20047;-84
2023/07/21 05:32:29;;;;;;;5.15;3.05;;;13.80;99.90;;;;;;6302910;22;20377;-82
2023/07/21 05:34:55;;;;;;;4.72;2.72;;;13.90;99.90;;;;;;6302732;22;20090;-83
2023/07/21 05:37:20;;;;;;;6.22;3.38;;;13.80;99.90;;;;;;6303609;22;20015;-82
2023/07/21 05:39:46;;;;;;;7.07;3.78;;;13.80;99.90;;;;;;6275819;22;20019;-81
2023/07/21 05:42:11;;;;;;;7.35;3.50;;;13.90;99.90;;;;;;6274375;22;20015;-82
2023/07/21 05:44:38;;;;;;;7.68;3.35;;;13.90;99.90;;;;;;6275818;22;20015;-83
2023/07/21 05:47:04;;;;;;;7.60;2.97;;;14.00;99.90;;;;;;6275123;22;20137;-83
2023/07/21 05:49:30;;;;;;;4.53;2.08;;;14.00;99.90;;;;;;6275353;22;20016;-83
2023/07/21 05:51:56;;;;;;;3.78;2.08;;;14.00;99.90;;;;;;6275330;22;20025;-83
2023/07/21 05:54:21;;;;;;;4.50;2.08;;;14.10;99.90;;;;;;6275980;22;20086;-85
2023/07/21 05:56:47;;;;;;;4.60;1.80;;;14.10;99.90;;;;;;6274602;22;20385;-83
2023/07/21 05:59:12;;;;;;;4.75;2.20;;;14.10;99.90;;;;;;6302904;22;20069;-83
2023/07/21 06:01:38;;;;;;;5.43;2.50;;;14.10;99.90;;;;;;6275759;22;20334;-83
2023/07/21 06:04:05;;;;;;;4.93;2.30;;;14.20;99.90;;;;;;6275852;22;20007;-84
2023/07/21 06:06:31;;;;;;;6.45;1.88;;;14.20;99.90;;;;;;6274216;22;20034;-84
2023/07/21 06:09:00;;;;;;;3.63;1.50;;;14.20;99.90;;;;;;6274574;22;20385;-83
2023/07/21 06:11:26;;;;;;;4.47;1.75;;;14.20;99.90;;;;;;6302447;22;20015;-84
2023/07/21 06:13:54;;;;;;;3.90;1.55;;;14.20;99.90;;;;;;6275401;22;20019;-87
2023/07/21 06:16:22;;;;;;;4.07;1.67;;;14.30;99.90;;;;;;6274719;22;20011;-80
2023/07/21 06:18:51;;;;;;;3.70;1.40;;;14.30;99.90;;;;;;6275779;22;20011;-82
2023/07/21 06:21:18;;;;;;;7.70;2.13;;;14.30;99.90;;;;;;6274272;22;20015;-82
2023/07/21 06:23:44;;;;;;;5.20;1.98;;;14.30;99.90;;;;;;6249991;22;20007;-88
2023/07/21 06:26:10;;;;;;;4.10;1.67;;;14.40;99.90;;;;;;6275146;22;20308;-88
2023/07/21 06:28:36;;;;;;;5.15;1.98;;;14.40;99.90;;;;;;6274906;22;20460;-86
2023/07/21 06:31:02;;;;;;;4.45;1.58;;;14.40;99.90;;;;;;6274271;22;20019;-88
2023/07/21 06:33:28;;;;;;;3.30;1.60;;;14.50;99.90;;;;;;6304470;22;20007;-90
2023/07/21 06:35:54;;;;;;;6.03;1.60;;;14.50;99.90;;;;;;6274749;22;20007;-85
2023/07/21 06:38:19;;;;;;;4.60;1.88;;;14.60;99.90;;;;;;6274950;22;20045;-87
2023/07/21 06:40:45;;;;;;;5.32;1.88;;;14.50;99.90;;;;;;6275949;22;20007;-86
2023/07/21 06:43:11;;;;;;;3.28;1.27;;;14.60;99.90;;;;;;6303249;22;20371;-89
2023/07/21 06:45:39;;;;;;;5.15;1.65;;;14.70;99.90;;;;;;6274791;22;20068;-86
2023/07/21 06:48:06;;;;;;;3.42;1.80;;;14.70;99.90;;;;;;6249198;22;20011;-89
2023/07/21 06:50:32;;;;;;;4.10;1.50;;;14.70;99.90;;;;;;6274451;22;20008;-86
2023/07/21 06:52:58;;;;;;;4.55;1.60;;;14.80;99.90;;;;;;6274626;22;20477;-83
2023/07/21 06:55:24;;;;;;;5.50;2.40;;;14.70;99.90;;;;;;6271494;22;20042;-83
2023/07/21 06:57:49;;;;;;;3.92;1.55;;;14.90;99.90;;;;;;6302664;22;20011;-83
2023/07/21 07:00:16;;;;;;;3.58;1.60;;;14.90;99.90;;;;;;6274447;22;20015;-84
2023/07/21 07:02:47;;;;;;;3.53;1.50;;;15.00;99.90;;;;;;6249089;22;20015;-83
2023/07/21 07:05:13;;;;;;;4.85;1.48;;;15.10;99.90;;;;;;6303468;22;20019;-88
2023/07/21 07:07:40;;;;;;;3.75;1.42;;;15.10;99.90;;;;;;6300708;22;20023;-88
2023/07/21 07:10:06;;;;;;;2.38;1.20;;;15.10;99.90;;;;;;6300264;22;20042;-87
2023/07/21 07:12:32;;;;;;;2.85;1.20;;;15.20;99.90;;;;;;6273633;22;20019;-86
2023/07/21 07:14:58;;;;;;;2.50;1.08;;;15.30;99.90;;;;;;6249068;22;20011;-86
2023/07/21 07:17:24;;;;;;;3.42;1.30;;;15.40;99.90;;;;;;6274538;22;20046;-86
2023/07/21 07:19:50;;;;;;;2.50;1.00;;;15.40;99.90;;;;;;6301519;22;20026;-86
2023/07/21 07:22:15;;;;;;;3.22;1.13;;;15.60;99.90;;;;;;6299874;22;20033;-86
2023/07/21 07:24:41;;;;;;;3.63;1.23;;;15.70;99.90;;;;;;6301892;22;20385;-87
2023/07/21 07:27:07;;;;;;;2.50;1.20;;;15.80;99.90;;;;;;6273238;22;20370;-86
2023/07/21 07:29:35;;;;;;;4.97;1.40;;;16.10;99.90;;;;;;6301429;22;20019;-86
2023/07/21 07:32:01;;;;;;;2.42;1.00;;;16.40;99.90;;;;;;6300625;22;20018;-87
2023/07/21 07:34:27;;;;;;;3.28;0.90;;;16.70;99.90;;;;;;6301369;22;20019;-85
2023/07/21 07:36:53;;;;;;;2.40;1.08;;;17.10;99.90;;;;;;6273661;22;20064;-86
2023/07/21 07:39:18;;;;;;;3.10;1.08;;;17.40;99.90;;;;;;6300991;22;20018;-85
2023/07/21 07:41:45;;;;;;;3.22;1.15;;;17.70;99.90;;;;;;6274339;22;20011;-85
2023/07/21 07:44:11;;;;;;;3.17;1.20;;;18.00;99.90;;;;;;6301779;22;20007;-82
2023/07/21 07:46:37;;;;;;;4.53;1.20;;;18.30;99.90;;;;;;6301982;22;20286;-82
2023/07/21 07:49:03;;;;;;;2.88;1.20;;;18.50;99.90;;;;;;6299731;22;20498;-82
2023/07/21 07:51:29;;;;;;;4.13;1.40;;;18.80;99.90;;;;;;6273910;22;20338;-83
2023/07/21 07:53:57;;;;;;;3.78;1.05;;;19.00;99.90;;;;;;6301419;22;20003;-83
2023/07/21 07:56:23;;;;;;;3.00;0.90;;;19.10;99.90;;;;;;6300999;22;20015;-83
2023/07/21 07:58:49;;;;;;;1.52;0.75;;;19.20;99.90;;;;;;6301648;22;20014;-83
2023/07/21 08:01:15;;;;;;;4.05;0.70;;;19.30;99.90;;;;;;6301220;22;20011;-83
2023/07/21 08:03:44;;;;;;;2.47;0.90;;;19.30;99.90;;;;;;6301584;22;20109;-83
2023/07/21 08:06:12;;;;;;;3.40;0.80;;;19.40;99.90;;;;;;6300422;22;20020;-83
2023/07/21 08:08:38;;;;;;;2.47;1.10;;;19.50;99.90;;;;;;6300309;22;20011;-82
2023/07/21 08:11:05;;;;;;;3.25;1.05;;;19.60;99.90;;;;;;6300074;22;20011;-83
2023/07/21 08:13:31;;;;;;;3.17;1.35;;;19.60;99.90;;;;;;6301231;22;20046;-83
2023/07/21 08:15:56;;;;;;;3.60;1.25;;;19.60;99.90;;;;;;6300392;22;20015;-85
2023/07/21 08:18:22;;;;;;;2.65;1.20;;;19.60;99.90;;;;;;6301704;22;20022;-84
2023/07/21 08:20:50;;;;;;;3.50;1.08;;;19.70;99.90;;;;;;6301362;22;20015;-84
2023/07/21 08:23:16;;;;;;;2.08;0.70;;;19.80;99.90;;;;;;6301283;22;20397;-83
2023/07/21 08:25:42;;;;;;;2.83;0.90;;;19.90;99.90;;;;;;6300319;22;20331;-87
2023/07/21 08:28:08;;;;;;;4.22;0.90;;;19.90;99.90;;;;;;6299992;22;20439;-86
2023/07/21 08:30:35;;;;;;;1.95;0.90;;;19.90;99.90;;;;;;6301638;22;20020;-85
2023/07/21 08:33:01;;;;;;;2.97;1.10;;;20.00;99.90;;;;;;6300673;22;20003;-84
2023/07/21 08:35:27;;;;;;;3.95;1.40;;;20.00;99.90;;;;;;6300353;22;20039;-84
2023/07/21 08:37:54;;;;;;;4.15;1.10;;;20.00;99.90;;;;;;6301215;22;20439;-88
2023/07/21 08:40:22;;;;;;;2.70;1.50;;;20.10;99.90;;;;;;6301506;22;20368;-86
2023/07/21 08:42:49;;;;;;;2.55;1.10;;;20.20;99.90;;;;;;6301080;22;20568;-86
2023/07/21 08:45:16;;;;;;;5.53;1.52;;;20.20;99.90;;;;;;6300278;22;20007;-86
2023/07/21 08:47:41;;;;;;;6.85;1.42;;;20.20;99.90;;;;;;6301204;22;20453;-86
2023/07/21 08:50:07;;;;;;;2.58;0.70;;;20.20;99.90;;;;;;6300647;22;20015;-87
2023/07/21 08:52:33;;;;;;;2.78;1.00;;;20.10;99.90;;;;;;6301483;22;20045;-85
2023/07/21 08:55:02;;;;;;;2.30;0.73;;;20.00;99.90;;;;;;6299321;22;20008;-87
2023/07/21 08:57:28;;;;;;;1.85;0.85;;;19.80;99.90;;;;;;6273754;22;20438;-89
2023/07/21 08:59:55;;;;;;;4.28;0.90;;;19.70;99.90;;;;;;6301471;22;20041;-89
2023/07/21 09:02:46;;;;;;;1.90;0.80;;;19.60;99.90;;;;;;6303477;22;20091;-88
2023/07/21 09:05:16;;;;;;;3.60;1.00;;;19.70;99.90;;;;;;6301383;22;20090;-87
2023/07/21 09:07:42;;;;;;;2.08;0.90;;;19.70;99.90;;;;;;6302422;22;20022;-86
2023/07/21 09:10:09;;;;;;;2.85;0.98;;;19.50;99.90;;;;;;6303131;22;20011;-84
2023/07/21 09:12:36;;;;;;;4.45;1.00;;;19.50;99.90;;;;;;6301999;22;20033;-84
2023/07/21 09:15:11;;;;;;;2.67;0.80;;;19.40;99.90;;;;;;6303206;22;20572;-84
2023/07/21 09:17:42;;;;;;;3.17;1.20;;;19.50;99.90;;;;;;6302673;22;20039;-84
2023/07/21 09:20:11;;;;;;;2.22;1.00;;;19.70;99.90;;;;;;6301827;22;20011;-84
2023/07/21 09:22:39;;;;;;;3.22;1.00;;;19.90;99.90;;;;;;6303291;22;20069;-84
2023/07/21 09:25:05;;;;;;;2.08;0.90;;;20.20;99.90;;;;;;6301642;22;20027;-84
2023/07/21 09:27:33;;;;;;;3.30;1.00;;;20.30;99.90;;;;;;6275676;22;20043;-85
2023/07/21 09:30:03;;;;;;;4.22;1.27;;;20.40;99.90;;;;;;6302456;22;20019;-84
2023/07/21 09:32:39;;;;;;;2.55;1.00;;;20.40;99.90;;;;;;6302700;22;20466;-84
2023/07/21 09:35:05;;;;;;;5.13;1.15;;;20.40;99.90;;;;;;6302449;22;20019;-84
2023/07/21 09:37:33;;;;;;;4.25;1.45;;;20.40;99.90;;;;;;6274660;22;20105;-85
2023/07/21 09:40:01;;;;;;;2.20;0.90;;;20.30;99.90;;;;;;6302242;22;20446;-85
2023/07/21 09:42:28;;;;;;;1.60;0.77;;;20.20;99.90;;;;;;6275710;22;20023;-85
2023/07/21 09:44:55;;;;;;;2.33;0.85;;;20.10;99.90;;;;;;6274056;22;20015;-84
2023/07/21 09:47:21;;;;;;;2.72;0.98;;;20.10;99.90;;;;;;6274576;22;20091;-84
2023/07/21 09:49:49;;;;;;;2.90;0.90;;;20.00;99.90;;;;;;6303113;22;20010;-85
2023/07/21 09:52:16;;;;;;;3.00;1.00;;;19.90;99.90;;;;;;6273435;22;20011;-85
2023/07/21 09:54:45;;;;;;;1.92;0.80;;;19.80;99.90;;;;;;6275474;22;20011;-85
2023/07/21 09:57:16;;;;;;;2.67;1.20;;;19.80;99.90;;;;;;6303187;22;20074;-85
2023/07/21 09:59:46;;;;;;;3.42;1.10;;;19.80;99.90;;;;;;6303544;22;20014;-85
2023/07/21 10:02:12;;;;;;;4.35;1.00;;;19.80;99.90;;;;;;6301382;22;20426;-85
2023/07/21 10:04:38;;;;;;;3.40;1.00;;;19.80;99.90;;;;;;6249640;22;20015;-85
2023/07/21 10:07:06;;;;;;;2.70;1.08;;;19.80;99.90;;;;;;6275266;22;20430;-85
2023/07/21 10:09:33;;;;;;;3.25;1.25;;;19.90;99.90;;;;;;6274962;22;20390;-86
2023/07/21 10:12:14;;;;;;;2.90;1.00;;;19.90;99.90;;;;;;6274192;22;20020;-86
2023/07/21 10:14:40;;;;;;;3.05;1.10;;;20.10;99.90;;;;;;6274334;22;20011;-85
2023/07/21 10:17:07;;;;;;;2.95;1.15;;;20.20;99.70;;;;;;6301321;22;20015;-85
2023/07/21 10:19:44;;;;;;;1.90;0.75;;;20.30;99.70;;;;;;6302111;22;20096;-86
2023/07/21 10:22:12;;;;;;;3.78;0.88;;;20.40;99.50;;;;;;6302510;22;20019;-85
2023/07/21 10:24:47;;;;;;;3.85;0.98;;;20.50;99.40;;;;;;6302454;22;20341;-86
2023/07/21 10:27:21;;;;;;;1.98;0.95;;;20.50;99.00;;;;;;6302081;22;20021;-85
2023/07/21 10:29:51;;;;;;;1.33;0.63;;;20.50;98.60;;;;;;6302577;22;20015;-87
2023/07/21 10:32:19;;;;;;;4.32;1.50;;;20.50;98.90;;;;;;6301426;22;20099;-88
2023/07/21 10:34:45;;;;;;;3.05;0.80;;;20.50;99.10;;;;;;6304604;22;20083;-82
2023/07/21 10:37:11;;;;;;;2.03;0.65;;;20.60;99.20;;;;;;6302954;22;20012;-89
2023/07/21 10:39:41;;;;;;;2.60;1.08;;;20.70;99.30;;;;;;6302638;22;20057;-86
2023/07/21 10:42:09;;;;;;;2.17;0.80;;;20.80;99.00;;;;;;6302529;22;20015;-84
2023/07/21 10:44:35;;;;;;;3.30;0.82;;;20.80;99.00;;;;;;6301783;22;20056;-85
2023/07/21 10:47:01;;;;;;;4.15;1.17;;;20.80;98.80;;;;;;6301652;22;20317;-86
2023/07/21 10:49:27;;;;;;;2.00;0.90;;;20.80;98.70;;;;;;6301865;22;20011;-83
2023/07/21 10:51:53;;;;;;;5.15;1.17;;;20.90;98.80;;;;;;6301130;22;20762;-84
2023/07/21 10:54:19;;;;;;;3.17;1.00;;;21.10;98.70;;;;;;6301683;22;20034;-83
2023/07/21 10:56:51;;;;;;;3.88;1.30;;;21.20;98.20;;;;;;6301987;22;20007;-84
2023/07/21 10:59:21;;;;;;;3.97;1.30;;;21.30;98.60;;;;;;6301455;22;20111;-83
2023/07/21 11:01:50;;;;;;;3.22;0.95;;;21.50;98.30;;;;;;6302233;22;20015;-82
2023/07/21 11:04:17;;;;;;;3.17;1.00;;;21.70;98.30;;;;;;6300923;22;20012;-84
2023/07/21 11:06:47;;;;;;;3.03;0.95;;;21.80;98.30;;;;;;6301960;22;20019;-87
2023/07/21 11:09:12;;;;;;;3.05;1.15;;;21.90;97.90;;;;;;6273300;22;20334;-84
2023/07/21 11:11:40;;;;;;;4.20;1.23;;;22.00;97.30;;;;;;6301674;22;20008;-87
2023/07/21 11:14:13;;;;;;;2.95;1.45;;;21.90;97.40;;;;;;6301004;22;20035;-83
2023/07/21 11:16:52;;;;;;;2.17;0.98;;;22.00;97.50;;;;;;6248217;22;20011;-82
2023/07/21 11:19:19;;;;;;;3.22;1.00;;;22.10;97.30;;;;;;6301180;22;20086;-82
2023/07/21 11:21:46;;;;;;;3.45;1.05;;;22.10;97.40;;;;;;6302261;22;20050;-83
2023/07/21 11:24:19;;;;;;;3.30;1.13;;;22.10;97.00;;;;;;6301165;22;20022;-83
2023/07/21 11:26:46;;;;;;;4.07;1.30;;;22.20;96.40;;;;;;6273816;22;20031;-84
2023/07/21 11:29:12;;;;;;;3.85;1.45;;;22.20;96.90;;;;;;6247180;22;20329;-84
2023/07/21 11:31:38;;;;;;;3.13;1.50;;;22.30;96.70;;;;;;6302272;22;20011;-84
2023/07/21 11:34:35;;;;;;;3.15;1.65;;;22.50;96.50;;;;;;6303577;22;20015;-83
2023/07/21 11:37:01;;;;;;;3.22;1.10;;;22.50;95.80;;;;;;6252476;22;20019;-85
2023/07/21 11:39:28;;;;;;;3.55;1.73;;;22.70;95.90;;;;;;6278453;22;20086;-85
2023/07/21 11:42:00;;;;;;;3.20;1.30;;;22.80;95.50;;;;;;6277301;22;20065;-86
2023/07/21 11:44:31;;;;;;;3.47;1.10;;;22.80;95.10;;;;;;6277411;22;20015;-86
2023/07/21 11:46:58;;;;;;;3.47;1.40;;;22.90;95.70;;;;;;6304898;22;20022;-84
2023/07/21 11:49:26;;;;;;;2.65;1.40;;;23.00;95.80;;;;;;6277822;22;20090;-85
2023/07/21 11:51:52;;;;;;;3.03;1.23;;;23.00;95.30;;;;;;6304614;22;20067;-84
2023/07/21 11:54:23;;;;;;;3.75;1.25;;;23.00;95.80;;;;;;6277729;22;20046;-84
2023/07/21 11:56:51;;;;;;;2.45;1.13;;;23.00;94.90;;;;;;6276131;22;20042;-86
2023/07/21 11:59:17;;;;;;;3.55;1.30;;;22.90;95.70;;;;;;6249806;22;20026;-84
2023/07/21 12:01:43;;;;;;;3.20;0.90;;;22.90;95.50;;;;;;6305096;22;20100;-85
2023/07/21 12:04:10;;;;;;;2.92;1.10;;;22.80;95.30;;;;;;6304452;22;20019;-87
2023/07/21 12:06:36;;;;;;;3.47;1.13;;;22.80;95.10;;;;;;6304487;22;20008;-85
2023/07/21 12:09:05;;;;;;;3.38;0.90;;;22.70;95.20;;;;;;6308407;22;20044;-85
2023/07/21 12:11:32;;;;;;;1.98;0.90;;;22.60;95.00;;;;;;6280550;22;20061;-87
2023/07/21 12:13:58;;;;;;;2.90;1.00;;;22.50;94.80;;;;;;6310082;22;20014;-87
2023/07/21 12:16:24;;;;;;;3.28;1.00;;;22.60;94.80;;;;;;6283313;22;20016;-88
2023/07/21 12:18:50;;;;;;;2.42;0.82;;;22.80;94.20;;;;;;6309240;22;20086;-87
2023/07/21 12:21:17;;;;;;;5.70;0.98;;;22.90;93.80;;;;;;6307015;22;20019;-87
2023/07/21 12:23:43;;;;;;;2.30;1.00;;;22.90;94.30;;;;;;6308068;22;20012;-88
2023/07/21 12:26:09;;;;;;;2.75;0.98;;;22.90;94.80;;;;;;6278430;22;20026;-87
2023/07/21 12:28:35;;;;;;;4.13;1.00;;;22.70;94.70;;;;;;6278997;22;20023;-86
2023/07/21 12:31:01;;;;;;;2.35;0.90;;;22.70;95.10;;;;;;6306041;22;20018;-86
2023/07/21 12:33:28;;;;;;;3.85;1.15;;;22.60;95.50;;;;;;6307087;22;20019;-87
2023/07/21 12:35:54;;;;;;;2.38;0.77;;;22.60;95.00;;;;;;6277776;22;20030;-87
2023/07/21 12:38:22;;;;;;;5.20;1.00;;;22.60;95.30;;;;;;6306285;22;20018;-87
2023/07/21 12:40:48;;;;;;;2.08;0.95;;;22.50;94.90;;;;;;6278233;22;20127;-86
2023/07/21 12:43:14;;;;;;;3.55;0.90;;;22.50;95.20;;;;;;6304785;22;20365;-86
2023/07/21 12:45:39;;;;;;;1.77;0.90;;;22.40;94.40;;;;;;6279697;22;20446;-91
2023/07/21 12:48:05;;;;;;;2.53;1.00;;;22.30;94.70;;;;;;6280666;22;20015;-92